West Penn, Pennsylvania
Current Conditions -  °F | °C
As of 3:15 AM on Tuesday 21 Oct 2014 (Local Time) from KHZL Reporting Station
Moderate Rain Moderate Rain  
Wind Chill: 50°   Ceiling: 6000
Heat Index: 50°   Visibility: 10mi
Dew Point: 46°   Wind: 3mph
Humidity: 87%   Direction: 150°SSE
Pressure: 29.9"   Gusts: NA
Location:  40.7138°N, 75.9395°W
Report Text: KHZL 210715Z AUTO 15003KT 10SM RA SCT046 OVC060 10/08 A2990 RMK AO2
Loading
Personal Weather Stations






























Interactive Weather Map
Tropical Storm Tracking
New forecast layout! Learn more

10-Day Weather Forecast

Advertisements
Track Severe Weather on mobile